Time;durP1;ratioP1;P1;durP2;ratioP2;P2;SDS_P1;SDS_P2;PMS_P1;PMS_P2;Temp;Humidity;BMP_temperature;BMP_pressure;BME280_temperature;BME280_humidity;BME280_pressure;Samples;Min_cycle;Max_cycle;Signal;HPM_P1;HPM_P2
2022/03/11 00:00:16;;;;;;;10.47;7.37;;;;;;;7.77;37.02;98953.31;4122731;28;20253;-63
2022/03/11 00:02:18;;;;;;;12.00;8.30;;;;;;;7.55;37.63;98947.59;4121261;28;20295;-63
2022/03/11 00:04:20;;;;;;;9.60;7.07;;;;;;;7.59;37.39;98951.56;4117137;28;20225;-62
2022/03/11 00:06:21;;;;;;;10.63;7.80;;;;;;;7.54;37.12;98958.34;4123468;28;20758;-63
2022/03/11 00:08:23;;;;;;;13.33;7.97;;;;;;;7.50;37.45;98949.06;4120542;28;20792;-63
2022/03/11 00:10:25;;;;;;;10.63;7.03;;;;;;;7.41;37.19;98956.97;4123980;28;20675;-63
2022/03/11 00:12:26;;;;;;;12.80;8.03;;;;;;;7.12;37.92;98952.00;4123560;28;20261;-63
2022/03/11 00:14:28;;;;;;;10.97;7.33;;;;;;;7.19;38.14;98949.56;4120011;28;20730;-63
2022/03/11 00:16:30;;;;;;;11.90;7.50;;;;;;;7.33;37.63;98958.72;4126400;28;20253;-63
2022/03/11 00:18:32;;;;;;;11.63;7.60;;;;;;;7.49;37.59;98950.88;4125359;28;20230;-63
2022/03/11 00:20:34;;;;;;;9.83;7.47;;;;;;;7.64;37.48;98946.63;4123463;28;20261;-63
2022/03/11 00:22:36;;;;;;;11.27;8.23;;;;;;;7.46;37.66;98954.69;4124977;28;20284;-63
2022/03/11 00:24:38;;;;;;;10.57;7.97;;;;;;;7.43;37.77;98955.00;4123719;28;20255;-63
2022/03/11 00:26:39;;;;;;;10.80;7.63;;;;;;;7.51;37.98;98951.53;4123793;28;20276;-63
2022/03/11 00:28:40;;;;;;;11.03;7.73;;;;;;;7.28;38.04;98951.28;4122300;28;20226;-63
2022/03/11 00:30:41;;;;;;;11.87;8.20;;;;;;;7.30;38.00;98951.13;4122049;28;20669;-63
2022/03/11 00:32:43;;;;;;;11.17;7.57;;;;;;;7.21;38.37;98951.06;4123415;28;20248;-63
2022/03/11 00:34:45;;;;;;;12.00;7.70;;;;;;;7.12;38.31;98953.81;4124243;28;20268;-63
2022/03/11 00:36:47;;;;;;;9.70;7.27;;;;;;;7.40;38.20;98952.66;4125098;28;20234;-63
2022/03/11 00:38:49;;;;;;;10.63;7.63;;;;;;;7.24;37.97;98957.84;4122303;28;20288;-63
2022/03/11 00:40:55;;;;;;;11.60;7.60;;;;;;;7.11;38.05;98950.38;4125254;28;20264;-62
2022/03/11 00:42:57;;;;;;;12.50;7.80;;;;;;;6.89;38.01;98956.97;4120633;28;20230;-63
2022/03/11 00:44:59;;;;;;;10.60;8.00;;;;;;;7.02;38.37;98938.06;4124850;28;20266;-63
2022/03/11 00:47:01;;;;;;;12.50;7.90;;;;;;;7.25;37.90;98946.31;4123510;28;20241;-63
2022/03/11 00:49:02;;;;;;;9.80;7.53;;;;;;;7.04;38.04;98941.38;4125404;28;20258;-63
2022/03/11 00:51:04;;;;;;;11.27;7.60;;;;;;;7.03;38.01;98939.72;4119878;28;20938;-63
2022/03/11 00:53:05;;;;;;;8.93;6.70;;;;;;;6.74;38.71;98935.56;4123338;28;20259;-63
2022/03/11 00:55:08;;;;;;;12.13;8.27;;;;;;;6.93;38.40;98939.84;4125055;28;20250;-62
2022/03/11 00:57:09;;;;;;;10.73;7.70;;;;;;;6.83;38.43;98941.72;4122446;28;20804;-63
2022/03/11 00:59:11;;;;;;;11.73;7.77;;;;;;;6.84;38.57;98931.00;4125851;28;20238;-63
2022/03/11 01:01:13;;;;;;;14.73;8.10;;;;;;;6.72;38.66;98940.13;4123901;28;20241;-62
2022/03/11 01:03:15;;;;;;;10.00;7.43;;;;;;;6.65;38.63;98939.09;4125674;28;20244;-63
2022/03/11 01:05:17;;;;;;;13.10;7.60;;;;;;;6.74;38.68;98927.63;4124798;28;20817;-63
2022/03/11 01:07:19;;;;;;;14.43;7.37;;;;;;;6.68;38.59;98936.97;4125822;28;20284;-62
2022/03/11 01:09:21;;;;;;;11.50;7.07;;;;;;;6.49;38.71;98942.44;4128624;28;20317;-62
2022/03/11 01:11:22;;;;;;;10.73;7.47;;;;;;;6.49;38.78;98934.53;4126737;28;20234;-63
2022/03/11 01:13:24;;;;;;;9.80;7.67;;;;;;;6.35;39.06;98934.09;4126510;28;20280;-63
2022/03/11 01:15:26;;;;;;;10.00;7.63;;;;;;;6.39;38.87;98925.88;4123426;28;20230;-63
2022/03/11 01:17:27;;;;;;;13.50;8.13;;;;;;;6.20;39.45;98914.47;4123681;28;20323;-63
2022/03/11 01:19:29;;;;;;;12.57;8.13;;;;;;;6.15;39.28;98917.56;4127965;28;20341;-62
2022/03/11 01:21:31;;;;;;;12.27;7.60;;;;;;;6.07;39.54;98917.50;4131981;28;20283;-63
2022/03/11 01:23:34;;;;;;;10.23;7.10;;;;;;;5.98;39.56;98915.75;4137815;28;20245;-63
2022/03/11 01:25:35;;;;;;;10.37;7.53;;;;;;;6.05;39.65;98911.53;4126419;28;20257;-63
2022/03/11 01:27:37;;;;;;;11.17;7.27;;;;;;;5.91;39.60;98904.97;4126576;28;20758;-63
2022/03/11 01:29:39;;;;;;;11.10;7.97;;;;;;;5.82;39.96;98905.03;4126781;28;20237;-62
2022/03/11 01:31:40;;;;;;;9.83;7.10;;;;;;;5.91;39.85;98897.06;4126380;28;20270;-62
2022/03/11 01:33:43;;;;;;;9.77;7.17;;;;;;;5.95;39.77;98905.50;4130325;28;20241;-62
2022/03/11 01:35:46;;;;;;;9.60;7.33;;;;;;;5.91;39.67;98901.47;4139417;28;20249;-62
2022/03/11 01:37:47;;;;;;;10.00;7.30;;;;;;;6.01;39.41;98896.97;4132503;28;20238;-63
2022/03/11 01:39:49;;;;;;;10.70;7.10;;;;;;;5.81;40.15;98898.94;4127012;28;20237;-62
2022/03/11 01:41:52;;;;;;;10.37;7.83;;;;;;;5.73;40.21;98896.22;4126862;28;20269;-63
2022/03/11 01:44:06;;;;;;;12.23;7.87;;;;;;;5.63;40.37;98891.00;4135110;28;20269;-62
2022/03/11 01:46:07;;;;;;;14.97;7.43;;;;;;;5.63;40.37;98898.06;4131017;28;20257;-61
2022/03/11 01:48:10;;;;;;;9.90;6.67;;;;;;;5.46;40.50;98894.44;4126553;28;20250;-63
2022/03/11 01:50:12;;;;;;;9.17;7.40;;;;;;;5.45;40.59;98887.47;4126052;28;20258;-62
2022/03/11 01:52:14;;;;;;;9.40;7.00;;;;;;;5.56;40.39;98889.94;4126537;28;20230;-63
2022/03/11 01:54:16;;;;;;;10.23;7.60;;;;;;;5.40;40.48;98891.38;4128352;28;21017;-62
2022/03/11 01:56:18;;;;;;;10.77;7.60;;;;;;;5.43;40.60;98885.00;4139607;28;20255;-63
2022/03/11 01:58:22;;;;;;;11.77;7.30;;;;;;;5.37;40.68;98894.31;4126788;28;20242;-64
2022/03/11 02:00:24;;;;;;;9.37;7.33;;;;;;;5.37;40.37;98890.84;4132097;28;20244;-62
2022/03/11 02:02:26;;;;;;;11.17;7.00;;;;;;;5.26;41.00;98880.47;4125447;28;20230;-62
2022/03/11 02:04:27;;;;;;;8.93;6.43;;;;;;;5.07;41.15;98882.22;4129950;28;20226;-63
2022/03/11 02:06:30;;;;;;;9.77;6.93;;;;;;;5.01;41.37;98872.25;4130786;28;20249;-62
2022/03/11 02:08:33;;;;;;;10.80;7.07;;;;;;;4.96;41.40;98880.56;4134296;28;20232;-63
2022/03/11 02:10:34;;;;;;;9.63;7.47;;;;;;;4.84;41.72;98873.84;4122599;28;20257;-63
2022/03/11 02:12:36;;;;;;;9.17;7.00;;;;;;;4.97;41.45;98873.53;4126693;28;20229;-62
2022/03/11 02:14:38;;;;;;;11.27;7.10;;;;;;;5.00;41.59;98871.44;4125925;28;20251;-63
2022/03/11 02:16:40;;;;;;;8.80;6.53;;;;;;;4.85;41.74;98868.44;4125841;28;20824;-63
2022/03/11 02:18:43;;;;;;;8.60;6.67;;;;;;;4.80;41.80;98872.47;4126026;28;20324;-63
2022/03/11 02:20:48;;;;;;;10.87;7.30;;;;;;;4.89;42.03;98871.59;4126542;28;20283;-63
2022/03/11 02:22:52;;;;;;;9.57;6.70;;;;;;;4.93;41.97;98866.88;4124907;28;20237;-63
2022/03/11 02:24:54;;;;;;;9.73;6.60;;;;;;;4.88;41.91;98867.28;4125495;28;20277;-62
2022/03/11 02:26:56;;;;;;;10.17;7.00;;;;;;;4.85;41.94;98868.44;4125981;28;20284;-63
2022/03/11 02:28:59;;;;;;;9.17;7.00;;;;;;;4.66;42.28;98871.94;4126738;28;20257;-63
2022/03/11 02:31:01;;;;;;;9.13;6.70;;;;;;;4.68;42.54;98872.63;4125954;28;20245;-63
2022/03/11 02:33:03;;;;;;;9.73;6.77;;;;;;;4.50;42.76;98867.25;4125487;28;20747;-63
2022/03/11 02:35:05;;;;;;;9.50;6.83;;;;;;;4.59;42.93;98870.84;4126545;28;20706;-63
2022/03/11 02:37:09;;;;;;;11.03;7.33;;;;;;;4.55;42.92;98866.03;4125234;28;20265;-63
2022/03/11 02:39:10;;;;;;;9.23;6.37;;;;;;;4.42;43.11;98871.56;4125168;28;20236;-63
2022/03/11 02:41:12;;;;;;;11.00;7.30;;;;;;;4.47;43.26;98858.81;4126167;28;20264;-63
2022/03/11 02:43:14;;;;;;;9.13;6.70;;;;;;;4.40;43.50;98857.72;4129586;28;20442;-62
2022/03/11 02:45:15;;;;;;;10.13;6.90;;;;;;;4.45;43.59;98858.97;4136090;28;20233;-63
2022/03/11 02:47:17;;;;;;;10.03;6.93;;;;;;;4.41;43.82;98857.59;4125704;28;20233;-63
2022/03/11 02:49:18;;;;;;;9.53;6.93;;;;;;;4.34;43.80;98853.84;4125814;28;20668;-62
2022/03/11 02:51:20;;;;;;;8.73;6.57;;;;;;;4.34;43.99;98853.84;4127229;28;20284;-62
2022/03/11 02:53:22;;;;;;;9.07;6.50;;;;;;;4.33;44.25;98844.31;4124106;28;20684;-62
2022/03/11 02:55:24;;;;;;;10.87;7.27;;;;;;;4.36;44.06;98854.56;4130451;28;20340;-62
2022/03/11 02:57:25;;;;;;;11.87;7.20;;;;;;;4.06;44.58;98850.28;4128707;28;20701;-62
2022/03/11 02:59:27;;;;;;;10.10;6.73;;;;;;;4.18;44.76;98840.44;4125937;28;20243;-62
2022/03/11 03:01:29;;;;;;;11.73;7.43;;;;;;;4.23;44.67;98833.78;4125808;28;20261;-63
2022/03/11 03:03:30;;;;;;;11.00;7.63;;;;;;;4.20;44.75;98828.78;4124783;28;20235;-63
2022/03/11 03:05:32;;;;;;;11.17;7.90;;;;;;;4.12;44.97;98849.72;4126308;28;20627;-62
2022/03/11 03:07:34;;;;;;;9.77;7.20;;;;;;;4.12;44.96;98842.66;4125415;28;20262;-62
2022/03/11 03:09:41;;;;;;;9.03;6.60;;;;;;;4.21;44.91;98829.66;4125043;28;20683;-62
2022/03/11 03:11:43;;;;;;;9.37;7.20;;;;;;;4.21;45.14;98832.28;4136542;28;20308;-62
2022/03/11 03:13:44;;;;;;;11.03;7.73;;;;;;;4.15;45.18;98825.75;4125036;28;20229;-62
2022/03/11 03:15:46;;;;;;;10.97;7.30;;;;;;;4.23;45.26;98827.69;4126400;28;20287;-63
2022/03/11 03:17:48;;;;;;;12.20;8.00;;;;;;;4.29;45.24;98827.97;4130572;28;20233;-62
2022/03/11 03:19:50;;;;;;;9.90;7.37;;;;;;;4.19;45.53;98826.31;4125763;28;20668;-63
2022/03/11 03:21:51;;;;;;;11.97;7.93;;;;;;;4.10;45.89;98826.16;4125499;28;20271;-62
2022/03/11 03:23:53;;;;;;;11.00;7.83;;;;;;;4.02;45.91;98823.44;4124590;28;21091;-62
2022/03/11 03:25:55;;;;;;;11.10;7.93;;;;;;;3.98;46.18;98831.72;4125913;28;20566;-63
2022/03/11 03:27:57;;;;;;;12.70;8.63;;;;;;;3.86;46.41;98826.59;4126859;28;20246;-62
2022/03/11 03:29:58;;;;;;;11.47;8.80;;;;;;;3.84;46.44;98827.72;4134415;28;20247;-63
2022/03/11 03:32:00;;;;;;;10.97;8.27;;;;;;;3.79;46.65;98828.13;4133820;28;20940;-62
2022/03/11 03:34:02;;;;;;;10.33;8.43;;;;;;;3.93;46.55;98825.06;4132598;28;20290;-62
2022/03/11 03:36:03;;;;;;;11.77;8.37;;;;;;;3.85;46.81;98839.88;4126115;28;20279;-62
2022/03/11 03:38:05;;;;;;;11.93;8.50;;;;;;;3.93;46.60;98825.06;4125244;28;20267;-62
2022/03/11 03:40:08;;;;;;;10.80;8.33;;;;;;;3.93;46.82;98825.06;4125721;28;20245;-63
2022/03/11 03:42:10;;;;;;;12.03;8.90;;;;;;;3.94;46.91;98829.38;4125745;28;20267;-63
2022/03/11 03:44:11;;;;;;;10.83;7.77;;;;;;;3.92;46.96;98827.84;4125988;28;20874;-62
2022/03/11 03:46:14;;;;;;;10.80;8.23;;;;;;;3.80;47.27;98831.59;4131518;28;20226;-62
2022/03/11 03:48:16;;;;;;;12.50;8.40;;;;;;;3.83;47.10;98831.31;4133044;28;20268;-62
2022/03/11 03:50:18;;;;;;;13.30;9.10;;;;;;;3.87;47.26;98825.66;4126164;28;20732;-63
2022/03/11 03:52:19;;;;;;;12.03;8.17;;;;;;;3.91;47.28;98831.47;4134585;28;20311;-61
2022/03/11 03:54:21;;;;;;;13.33;8.13;;;;;;;3.90;47.16;98828.00;4127711;28;20273;-62
2022/03/11 03:56:23;;;;;;;11.73;8.57;;;;;;;3.78;47.59;98834.34;4127915;28;20232;-63
2022/03/11 03:58:24;;;;;;;14.93;9.10;;;;;;;3.81;47.72;98826.19;4139028;28;20226;-63
2022/03/11 04:00:26;;;;;;;14.63;9.20;;;;;;;3.69;47.95;98837.81;4133809;28;20723;-62
2022/03/11 04:02:28;;;;;;;13.40;8.37;;;;;;;3.72;47.85;98824.41;4131037;28;20238;-62
2022/03/11 04:04:30;;;;;;;11.53;8.43;;;;;;;3.79;47.97;98828.13;4127601;28;20254;-62
2022/03/11 04:06:33;;;;;;;18.43;10.30;;;;;;;3.98;47.58;98821.22;4127593;28;20875;-63
2022/03/11 04:08:34;;;;;;;14.27;8.90;;;;;;;3.97;47.77;98828.25;4127578;28;20636;-62
2022/03/11 04:10:36;;;;;;;13.50;9.13;;;;;;;3.89;47.64;98823.69;4123393;28;20711;-62
2022/03/11 04:12:38;;;;;;;14.37;9.73;;;;;;;3.89;47.78;98818.44;4128443;28;20738;-63
2022/03/11 04:14:40;;;;;;;13.70;10.17;;;;;;;3.71;48.18;98834.06;4127670;28;20725;-62
2022/03/11 04:16:42;;;;;;;17.43;10.33;;;;;;;3.86;48.24;98821.34;4133898;28;20274;-63
2022/03/11 04:18:45;;;;;;;14.30;10.93;;;;;;;3.88;48.25;98822.03;4134759;28;20263;-62
2022/03/11 04:20:47;;;;;;;14.00;10.47;;;;;;;3.94;48.05;98829.38;4126769;28;20290;-63
2022/03/11 04:22:48;;;;;;;14.23;10.90;;;;;;;4.03;47.89;98826.88;4133275;28;20392;-62
2022/03/11 04:24:50;;;;;;;15.17;10.83;;;;;;;4.00;47.98;98833.25;4129721;28;20278;-63
2022/03/11 04:26:52;;;;;;;16.60;10.70;;;;;;;4.14;47.83;98832.00;4128137;28;20252;-62
2022/03/11 04:28:53;;;;;;;14.40;11.07;;;;;;;4.04;48.15;98842.53;4127723;28;20274;-62
2022/03/11 04:30:55;;;;;;;15.37;10.77;;;;;;;4.16;47.77;98837.94;4127564;28;20315;-62
2022/03/11 04:32:57;;;;;;;15.03;10.50;;;;;;;3.84;48.37;98838.25;4128694;28;20262;-63
2022/03/11 04:34:59;;;;;;;13.53;10.27;;;;;;;3.80;48.58;98840.28;4133746;28;20744;-63
2022/03/11 04:37:00;;;;;;;14.50;10.57;;;;;;;3.96;48.40;98831.88;4119443;28;20260;-62
2022/03/11 04:39:02;;;;;;;12.60;10.20;;;;;;;3.77;48.89;98837.13;4133541;28;20235;-62
2022/03/11 04:41:05;;;;;;;16.00;10.67;;;;;;;3.72;49.24;98834.91;4133147;28;20259;-63
2022/03/11 04:43:06;;;;;;;14.63;10.70;;;;;;;3.53;49.56;98831.31;4132293;28;20226;-62
2022/03/11 04:45:08;;;;;;;14.93;10.20;;;;;;;3.52;49.55;98834.06;4135155;28;20235;-61
2022/03/11 04:47:10;;;;;;;14.50;10.60;;;;;;;3.33;49.89;98837.44;4133936;28;20269;-62
2022/03/11 04:49:12;;;;;;;14.87;10.23;;;;;;;3.32;49.84;98833.97;4130950;28;20229;-63
2022/03/11 04:51:14;;;;;;;17.70;9.63;;;;;;;3.55;49.68;98834.63;4132770;28;20238;-63
2022/03/11 04:53:16;;;;;;;15.23;10.63;;;;;;;3.61;49.57;98835.84;4129241;28;20233;-62
2022/03/11 04:55:17;;;;;;;18.90;10.73;;;;;;;3.48;49.81;98833.50;4132498;28;20257;-62
2022/03/11 04:57:19;;;;;;;14.67;9.67;;;;;;;3.52;49.80;98832.25;4128146;28;20686;-60
2022/03/11 04:59:21;;;;;;;13.10;10.37;;;;;;;3.36;50.08;98835.38;4132976;28;20247;-62
2022/03/11 05:01:22;;;;;;;15.33;10.50;;;;;;;3.68;49.81;98821.19;4131834;28;20235;-60
2022/03/11 05:03:24;;;;;;;14.17;10.53;;;;;;;3.74;49.54;98830.34;4131529;28;20818;-61
2022/03/11 05:05:26;;;;;;;15.27;10.97;;;;;;;3.77;49.33;98824.81;4132646;28;20229;-61
2022/03/11 05:07:29;;;;;;;15.20;10.47;;;;;;;3.65;49.74;98824.13;4129221;28;20977;-61
2022/03/11 05:09:30;;;;;;;16.03;10.87;;;;;;;3.49;50.18;98824.63;4134146;28;20271;-60
2022/03/11 05:11:32;;;;;;;14.73;11.47;;;;;;;4.00;49.01;98824.53;4127618;28;20263;-61
2022/03/11 05:13:34;;;;;;;18.33;10.93;;;;;;;3.72;49.69;98824.41;4127248;28;20300;-61
2022/03/11 05:15:38;;;;;;;17.43;10.87;;;;;;;3.73;49.78;98824.22;4126290;28;20279;-61
2022/03/11 05:17:40;;;;;;;15.40;11.97;;;;;;;3.68;49.95;98826.44;4125616;28;20235;-62
2022/03/11 05:19:41;;;;;;;16.20;12.10;;;;;;;3.77;49.98;98826.59;4131700;28;20229;-61
2022/03/11 05:21:43;;;;;;;16.00;12.77;;;;;;;3.78;49.77;98828.25;4132520;28;20259;-62
2022/03/11 05:23:45;;;;;;;15.97;12.30;;;;;;;3.59;50.19;98835.16;4128411;28;20235;-61
2022/03/11 05:25:47;;;;;;;14.77;11.57;;;;;;;3.56;50.20;98830.19;4127294;28;20270;-62
2022/03/11 05:27:48;;;;;;;18.10;12.87;;;;;;;3.49;50.38;98842.22;4133982;28;20267;-60
2022/03/11 05:29:50;;;;;;;16.00;12.53;;;;;;;3.72;50.11;98840.19;4129725;28;20264;-62
2022/03/11 05:31:52;;;;;;;16.60;13.00;;;;;;;3.74;49.90;98848.75;4125787;28;20247;-62
2022/03/11 05:33:55;;;;;;;16.63;12.83;;;;;;;3.62;50.36;98852.44;4126950;28;20497;-62
2022/03/11 05:35:56;;;;;;;19.60;12.70;;;;;;;3.75;50.07;98838.09;4126929;28;20784;-62
2022/03/11 05:37:58;;;;;;;18.57;13.00;;;;;;;3.76;49.99;98844.19;4124976;28;20931;-62
2022/03/11 05:40:00;;;;;;;17.83;13.13;;;;;;;3.66;50.24;98848.59;4134852;28;20247;-61
2022/03/11 05:42:02;;;;;;;19.63;14.13;;;;;;;3.65;50.48;98849.56;4123361;28;20340;-62
2022/03/11 05:44:04;;;;;;;18.03;14.27;;;;;;;3.71;50.11;98849.84;4136931;28;20724;-62
2022/03/11 05:46:06;;;;;;;19.90;15.10;;;;;;;3.71;50.06;98855.09;4141121;28;20251;-62
2022/03/11 05:48:07;;;;;;;21.67;14.03;;;;;;;3.37;50.83;98847.53;4130508;28;20241;-61
2022/03/11 05:50:10;;;;;;;17.40;13.20;;;;;;;3.71;50.31;98854.28;4129410;28;20667;-61
2022/03/11 05:52:12;;;;;;;20.07;13.50;;;;;;;3.72;50.02;98862.03;4126684;28;20273;-62
2022/03/11 05:54:13;;;;;;;20.57;14.93;;;;;;;3.61;50.41;98861.31;4126695;28;20234;-60
2022/03/11 05:56:15;;;;;;;19.13;13.53;;;;;;;3.50;50.65;98863.09;4132292;28;20258;-61
2022/03/11 05:58:17;;;;;;;20.67;15.13;;;;;;;3.59;50.52;98855.38;4135163;28;20268;-61
2022/03/11 06:00:18;;;;;;;18.17;13.60;;;;;;;3.26;50.74;98865.22;4136646;28;20258;-61
2022/03/11 06:02:20;;;;;;;18.00;13.77;;;;;;;3.66;50.42;98857.31;4126704;28;20245;-59
2022/03/11 06:04:22;;;;;;;20.33;13.83;;;;;;;3.64;50.35;98863.69;4129415;28;20230;-61
2022/03/11 06:06:23;;;;;;;21.03;14.30;;;;;;;3.49;50.42;98852.72;4127129;28;20745;-62
2022/03/11 06:08:25;;;;;;;19.97;14.97;;;;;;;3.53;50.57;98851.47;4125177;28;20250;-61
2022/03/11 06:10:27;;;;;;;20.27;15.07;;;;;;;3.55;50.58;98846.94;4125626;28;20697;-62
2022/03/11 06:12:28;;;;;;;20.43;14.97;;;;;;;3.51;50.83;98853.41;4130643;28;20232;-62
2022/03/11 06:14:30;;;;;;;21.73;15.70;;;;;;;3.56;50.62;98856.47;4133416;28;20284;-62
2022/03/11 06:16:33;;;;;;;20.47;14.20;;;;;;;3.32;51.23;98849.75;4126524;28;20482;-61
2022/03/11 06:18:34;;;;;;;20.77;14.83;;;;;;;3.35;51.25;98851.28;4126064;28;20235;-61
2022/03/11 06:20:36;;;;;;;22.63;15.63;;;;;;;3.31;51.29;98852.50;4126467;28;20691;-61
2022/03/11 06:22:47;;;;;;;19.47;15.07;;;;;;;3.32;51.47;98862.88;4125522;28;20593;-61
2022/03/11 06:24:48;;;;;;;20.97;15.33;;;;;;;3.56;50.71;98857.28;4123295;28;20560;-61
2022/03/11 06:26:50;;;;;;;20.83;14.10;;;;;;;3.61;50.70;98861.31;4125349;28;20240;-61
2022/03/11 06:28:52;;;;;;;23.20;14.00;;;;;;;3.64;50.77;98855.81;4126224;28;20274;-61
2022/03/11 06:30:53;;;;;;;20.70;15.33;;;;;;;3.67;50.49;98869.50;4126093;28;20662;-61
2022/03/11 06:32:55;;;;;;;22.67;14.93;;;;;;;3.67;50.45;98863.41;4125630;28;20807;-62
2022/03/11 06:34:57;;;;;;;22.07;15.07;;;;;;;3.54;50.64;98869.75;4125186;28;20242;-60
2022/03/11 06:36:59;;;;;;;21.67;14.63;;;;;;;3.39;50.91;98865.81;4124111;28;20267;-62
2022/03/11 06:39:01;;;;;;;19.77;14.97;;;;;;;3.46;51.07;98861.69;4118214;28;20231;-62
2022/03/11 06:41:02;;;;;;;22.10;15.40;;;;;;;3.44;51.28;98854.94;4125820;28;20285;-61
2022/03/11 06:43:05;;;;;;;22.07;15.73;;;;;;;3.50;51.11;98855.22;4128060;28;20608;-62
2022/03/11 06:45:08;;;;;;;22.03;15.93;;;;;;;3.39;51.19;98856.13;4130236;28;20310;-61
2022/03/11 06:47:09;;;;;;;24.13;16.27;;;;;;;3.36;51.49;98859.03;4125545;28;20898;-62
2022/03/11 06:49:11;;;;;;;22.67;16.53;;;;;;;3.56;50.93;98859.91;4125419;28;20322;-62
2022/03/11 06:51:13;;;;;;;22.63;15.93;;;;;;;3.56;51.05;98865.19;4122416;28;20294;-61
2022/03/11 06:53:15;;;;;;;23.63;15.70;;;;;;;3.56;51.09;98859.91;4125704;28;20631;-62
2022/03/11 06:55:17;;;;;;;24.47;16.70;;;;;;;3.75;50.76;98863.53;4123904;28;20274;-61
2022/03/11 06:57:20;;;;;;;28.17;18.40;;;;;;;3.54;50.83;98885.50;4125828;28;20801;-61
2022/03/11 06:59:22;;;;;;;22.43;15.40;;;;;;;3.79;50.38;98882.53;4126139;28;20253;-61
2022/03/11 07:01:24;;;;;;;22.97;17.23;;;;;;;3.82;50.37;98888.34;4130397;28;20239;-61
2022/03/11 07:03:26;;;;;;;22.97;15.90;;;;;;;3.47;51.12;98883.56;4125471;28;20230;-61
2022/03/11 07:05:28;;;;;;;22.37;15.43;;;;;;;3.75;50.39;98882.81;4127458;28;20312;-61
2022/03/11 07:07:31;;;;;;;20.93;15.63;;;;;;;3.86;50.21;98881.84;4124876;28;20681;-61
2022/03/11 07:09:34;;;;;;;22.00;15.63;;;;;;;3.98;50.05;98876.44;4129885;28;20293;-62
2022/03/11 07:11:35;;;;;;;20.77;15.53;;;;;;;3.64;50.49;98893.44;4132958;28;20268;-61
2022/03/11 07:13:37;;;;;;;21.27;15.27;;;;;;;3.75;50.70;98876.69;4126098;28;20267;-62
2022/03/11 07:15:39;;;;;;;21.83;15.30;;;;;;;3.48;50.83;98893.97;4126003;28;20262;-62
2022/03/11 07:17:40;;;;;;;22.90;16.97;;;;;;;3.76;50.25;98894.13;4122132;28;20450;-62
2022/03/11 07:19:42;;;;;;;22.30;15.53;;;;;;;3.80;50.18;98894.69;4124704;28;20240;-62
2022/03/11 07:21:44;;;;;;;25.33;16.93;;;;;;;3.70;50.46;98892.91;4129044;28;20251;-62
2022/03/11 07:23:50;;;;;;;20.73;15.47;;;;;;;3.93;50.15;98895.25;4127793;28;20260;-62
2022/03/11 07:25:51;;;;;;;24.63;15.83;;;;;;;3.93;49.67;98893.47;4129290;28;20255;-62
2022/03/11 07:27:53;;;;;;;22.83;15.87;;;;;;;4.04;49.76;98904.81;4128142;28;20244;-60
2022/03/11 07:29:56;;;;;;;21.60;15.77;;;;;;;4.03;50.14;98896.09;4128670;28;20270;-62
2022/03/11 07:31:58;;;;;;;20.33;15.23;;;;;;;3.79;50.33;98893.88;4127935;28;20248;-61
2022/03/11 07:34:00;;;;;;;20.80;15.63;;;;;;;3.63;50.43;98897.00;4133596;28;20264;-61
2022/03/11 07:36:01;;;;;;;20.30;14.73;;;;;;;4.22;49.88;98887.38;4139397;28;20271;-62
2022/03/11 07:38:03;;;;;;;25.13;16.87;;;;;;;4.07;49.84;98900.13;4144208;28;20244;-62
2022/03/11 07:40:05;;;;;;;22.30;15.47;;;;;;;4.10;49.92;98899.00;4132055;28;20241;-61
2022/03/11 07:42:07;;;;;;;20.17;15.43;;;;;;;3.92;50.10;98890.97;4127777;28;20729;-62
2022/03/11 07:44:09;;;;;;;24.40;15.50;;;;;;;4.35;49.12;98902.88;4130439;28;20260;-61
2022/03/11 07:46:18;;;;;;;24.27;16.17;;;;;;;3.90;50.22;98896.38;4138582;28;20305;-62
2022/03/11 07:48:19;;;;;;;19.03;14.63;;;;;;;4.14;49.51;98895.16;4131897;28;20243;-62
2022/03/11 07:50:21;;;;;;;20.23;15.30;;;;;;;4.00;50.04;98900.81;4131096;28;20713;-60
2022/03/11 07:52:25;;;;;;;21.20;14.07;;;;;;;3.99;50.48;98900.00;4129721;28;20244;-62
2022/03/11 07:54:26;;;;;;;19.90;14.57;;;;;;;4.30;50.29;98887.50;4127182;28;20604;-61
2022/03/11 07:56:28;;;;;;;19.50;14.53;;;;;;;4.31;49.61;98891.81;4128696;28;20255;-62
2022/03/11 07:58:30;;;;;;;22.27;15.23;;;;;;;4.23;50.10;98886.41;4127355;28;20259;-62
2022/03/11 08:00:32;;;;;;;18.97;15.23;;;;;;;4.26;49.68;98894.03;4127996;28;20354;-62
2022/03/11 08:02:34;;;;;;;23.20;14.97;;;;;;;3.87;50.29;98893.16;4128718;28;20247;-62
2022/03/11 08:04:37;;;;;;;22.23;15.57;;;;;;;4.13;50.06;98886.41;4127082;28;20230;-62
2022/03/11 08:06:40;;;;;;;22.83;14.90;;;;;;;3.97;49.83;98888.75;4140819;28;20259;-62
2022/03/11 08:08:43;;;;;;;22.13;16.07;;;;;;;4.27;49.67;98884.31;4129667;28;20266;-62
2022/03/11 08:10:44;;;;;;;23.63;15.13;;;;;;;4.28;49.64;98878.94;4128374;28;20251;-62
2022/03/11 08:13:06;;;;;;;20.47;15.33;;;;;;;4.28;50.21;98872.84;4126752;28;20812;-62
2022/03/11 08:15:13;;;;;;;22.73;14.20;;;;;;;4.16;50.33;98879.19;4127038;28;20275;-62
2022/03/11 08:17:15;;;;;;;19.87;13.83;;;;;;;4.30;49.71;98873.53;4128316;28;20271;-62
2022/03/11 08:19:17;;;;;;;20.43;14.37;;;;;;;4.13;49.78;98883.78;4127343;28;20284;-62
2022/03/11 08:21:23;;;;;;;27.03;15.30;;;;;;;4.30;50.23;98884.88;4128757;28;20763;-62
2022/03/11 08:23:25;;;;;;;20.27;14.07;;;;;;;4.35;49.43;98889.72;4131566;28;20430;-62
2022/03/11 08:25:27;;;;;;;23.63;14.77;;;;;;;4.30;48.87;98897.22;4127167;28;20294;-64
2022/03/11 08:27:28;;;;;;;21.17;14.17;;;;;;;4.47;49.11;98891.22;4131179;28;20244;-63
2022/03/11 08:29:34;;;;;;;20.43;13.47;;;;;;;4.25;49.36;98907.31;4136947;28;20708;-64
2022/03/11 08:31:36;;;;;;;18.97;14.07;;;;;;;5.15;48.18;98887.59;4126743;28;20249;-64
2022/03/11 08:33:43;;;;;;;21.03;14.63;;;;;;;4.93;48.21;98885.31;4126877;28;20239;-63
2022/03/11 08:35:53;;;;;;;18.80;13.20;;;;;;;5.21;48.13;98880.91;4128502;28;20252;-62
2022/03/11 08:38:11;;;;;;;19.67;13.80;;;;;;;5.28;47.77;98884.59;4127067;28;20244;-62
2022/03/11 08:40:14;;;;;;;18.63;14.10;;;;;;;4.82;48.90;98878.41;4127084;28;20245;-62
2022/03/11 08:42:16;;;;;;;20.17;14.13;;;;;;;5.12;47.48;98887.88;4127021;28;20526;-62
2022/03/11 08:44:18;;;;;;;18.03;13.13;;;;;;;5.19;47.92;98870.50;4127960;28;20229;-62
2022/03/11 08:46:19;;;;;;;19.97;13.13;;;;;;;5.76;46.49;98886.19;4128651;28;20257;-62
2022/03/11 08:48:21;;;;;;;19.57;12.93;;;;;;;5.45;46.80;98898.84;4128714;28;20733;-62
2022/03/11 08:50:26;;;;;;;20.53;13.23;;;;;;;5.13;46.77;98915.06;4131980;28;20284;-62
2022/03/11 08:52:28;;;;;;;19.00;13.63;;;;;;;5.50;46.98;98895.78;4132706;28;20237;-62
2022/03/11 08:54:30;;;;;;;18.93;14.10;;;;;;;5.52;46.71;98899.94;4126100;28;20233;-62
2022/03/11 08:56:32;;;;;;;18.67;13.33;;;;;;;5.90;45.72;98908.56;4135040;28;20229;-63
2022/03/11 08:58:33;;;;;;;17.90;13.23;;;;;;;5.77;46.21;98906.28;4130952;28;20256;-62
2022/03/11 09:00:35;;;;;;;19.70;13.73;;;;;;;5.85;46.15;98910.84;4127292;28;20603;-63
2022/03/11 09:02:37;;;;;;;15.80;13.13;;;;;;;5.85;46.17;98907.38;4127358;28;20615;-63
2022/03/11 09:04:39;;;;;;;20.13;13.03;;;;;;;6.06;45.59;98905.25;4126436;28;20252;-62
2022/03/11 09:06:41;;;;;;;18.60;12.90;;;;;;;5.98;45.90;98911.31;4127071;28;20234;-62
2022/03/11 09:08:44;;;;;;;19.87;13.17;;;;;;;6.24;45.26;98909.72;4127012;28;20257;-62
2022/03/11 09:10:46;;;;;;;18.97;13.03;;;;;;;6.22;45.65;98914.34;4129625;28;20291;-61
2022/03/11 09:12:48;;;;;;;15.97;11.97;;;;;;;6.41;45.44;98914.16;4126312;28;20960;-61
2022/03/11 09:14:50;;;;;;;17.43;12.07;;;;;;;6.37;44.96;98915.44;4126150;28;20714;-62
2022/03/11 09:16:52;;;;;;;19.90;12.73;;;;;;;6.51;45.10;98906.97;4126274;28;20265;-62
2022/03/11 09:18:54;;;;;;;19.00;12.83;;;;;;;6.30;45.30;98920.50;4127476;28;20238;-63
2022/03/11 09:20:56;;;;;;;19.87;12.93;;;;;;;6.59;44.35;98913.31;4126344;28;20288;-63
2022/03/11 09:22:58;;;;;;;17.93;13.27;;;;;;;6.67;44.79;98916.00;4127466;28;20283;-64
2022/03/11 09:25:01;;;;;;;17.90;12.87;;;;;;;6.36;45.12;98921.69;4126873;28;20262;-64
2022/03/11 09:27:03;;;;;;;16.73;12.43;;;;;;;6.73;45.12;98921.50;4125865;28;20250;-64
2022/03/11 09:29:05;;;;;;;20.57;12.70;;;;;;;6.84;44.27;98909.03;4137441;28;20325;-64
2022/03/11 09:31:08;;;;;;;17.43;12.03;;;;;;;6.65;44.27;98928.53;4129797;28;20761;-64